This is the latest recevied weather packets stored in our database for station/object SQ5DCP-1. If no packets are shown the sender has not sent any weather packets the latest 10 day(s).
| Time | Temp. | Humidity | Pressure | Rain* | Wind** | Luminosity | Snow |
|---|---|---|---|---|---|---|---|
| 1777839317 | 16.67° C | 43% | 1015.6 hPa | 0 mm | - | - | - |
| 1777839035 | 16.67° C | 42% | 1015.6 hPa | 0 mm | - | - | - |
| 1777838733 | 16.67° C | 42% | 1015.6 hPa | 0 mm | - | - | - |
| 1777838128 | 17.22° C | 41% | 1015.7 hPa | 0 mm | - | - | - |
| 1777836921 | 17.78° C | 40% | 1015.7 hPa | 0 mm | - | - | - |
| 1777836619 | 17.78° C | 40% | 1015.7 hPa | 0 mm | - | - | - |
| 1777836317 | 18.33° C | 39% | 1015.7 hPa | 0 mm | - | - | - |
| 1777835733 | 18.89° C | 38% | 1015.6 hPa | 0 mm | - | - | - |
| 1777835430 | 18.89° C | 38% | 1015.7 hPa | 0 mm | - | - | - |
| 1777835129 | 18.89° C | 37% | 1015.6 hPa | 0 mm | - | - | - |
| 1777834224 | 20° C | 36% | 1015.5 hPa | 0 mm | - | - | - |
| 1777833035 | 21.11° C | 34% | 1015.6 hPa | 0 mm | - | - | - |
| 1777832734 | 21.11° C | 34% | 1015.6 hPa | 0 mm | - | - | - |
| 1777828223 | 23.89° C | 28% | 1015.3 hPa | 0 mm | - | - | - |
| 1777827619 | 23.89° C | 27% | 1015.3 hPa | 0 mm | - | - | - |
| 1777826432 | 24.44° C | 25% | 1015.3 hPa | 0 mm | - | - | - |
| 1777825827 | 24.44° C | 25% | 1015.4 hPa | 0 mm | - | - | - |
| 1777825223 | 25° C | 25% | 1015.4 hPa | 0 mm | - | - | - |
| 1777824921 | 25° C | 26% | 1015.4 hPa | 0 mm | - | - | - |
| 1777823733 | 25.56° C | 25% | 1015.6 hPa | 0 mm | - | - | - |
| 1777823431 | 25.56° C | 25% | 1015.6 hPa | 0 mm | - | - | - |
| 1777821035 | 25° C | 26% | 1015.8 hPa | 0 mm | - | - | - |
| 1777819827 | 25.56° C | 25% | 1016 hPa | 0 mm | - | - | - |
| 1777818619 | 25.56° C | 26% | 1016.2 hPa | 0 mm | - | - | - |
| 1777817431 | 25.56° C | 25% | 1016.3 hPa | 0 mm | - | - | - |
* Rain latest hour (hover to see other rain measurements)
** Current wind speed in m/s (hover to see current wind gust speed)